sensor_id;sensor_type;location;lat;lon;timestamp;pressure;altitude;pressure_sealevel;temperature;humidity
51081;BME280;37130;55.670;37.596;2023-02-18T00:01:14;99608.69;;;-9.82;80.92
51081;BME280;37130;55.670;37.596;2023-02-18T00:03:42;99569.63;;;-10.00;81.27
51081;BME280;37130;55.670;37.596;2023-02-18T00:06:18;99600.91;;;-9.85;80.87
51081;BME280;37130;55.670;37.596;2023-02-18T00:08:46;99609.34;;;-9.87;81.35
51081;BME280;37130;55.670;37.596;2023-02-18T00:11:15;99591.44;;;-9.86;81.18
51081;BME280;37130;55.670;37.596;2023-02-18T00:13:48;99595.81;;;-9.83;80.53
51081;BME280;37130;55.670;37.596;2023-02-18T00:16:16;99461.84;;;-10.59;81.26
51081;BME280;37130;55.670;37.596;2023-02-18T00:18:44;99588.09;;;-9.85;81.67
51081;BME280;37130;55.670;37.596;2023-02-18T00:21:11;99586.41;;;-9.83;81.57
51081;BME280;37130;55.670;37.596;2023-02-18T00:23:39;99596.53;;;-9.87;81.42
51081;BME280;37130;55.670;37.596;2023-02-18T00:26:12;99562.75;;;-10.01;81.74
51081;BME280;37130;55.670;37.596;2023-02-18T00:28:40;99578.59;;;-9.87;82.23
51081;BME280;37130;55.670;37.596;2023-02-18T00:31:11;99571.72;;;-9.88;80.40
51081;BME280;37130;55.670;37.596;2023-02-18T00:33:40;99569.00;;;-9.93;81.69
51081;BME280;37130;55.670;37.596;2023-02-18T00:36:11;99573.22;;;-9.95;81.46
51081;BME280;37130;55.670;37.596;2023-02-18T00:38:47;99563.63;;;-10.01;81.79
51081;BME280;37130;55.670;37.596;2023-02-18T00:41:17;99568.13;;;-9.94;81.74
51081;BME280;37130;55.670;37.596;2023-02-18T00:43:45;99561.19;;;-9.98;81.40
51081;BME280;37130;55.670;37.596;2023-02-18T00:46:13;99566.25;;;-9.99;80.46
51081;BME280;37130;55.670;37.596;2023-02-18T00:48:41;99555.91;;;-10.02;81.19
51081;BME280;37130;55.670;37.596;2023-02-18T00:51:09;99566.09;;;-10.04;82.14
51081;BME280;37130;55.670;37.596;2023-02-18T00:53:38;99560.25;;;-10.00;81.10
51081;BME280;37130;55.670;37.596;2023-02-18T00:56:06;99483.44;;;-10.51;81.59
51081;BME280;37130;55.670;37.596;2023-02-18T00:58:34;99549.75;;;-10.07;80.62
51081;BME280;37130;55.670;37.596;2023-02-18T01:01:05;99548.88;;;-10.08;82.21
51081;BME280;37130;55.670;37.596;2023-02-18T01:03:37;99537.53;;;-10.16;80.97
51081;BME280;37130;55.670;37.596;2023-02-18T01:06:06;99541.88;;;-10.13;81.84
51081;BME280;37130;55.670;37.596;2023-02-18T01:08:35;99523.78;;;-10.18;81.59
51081;BME280;37130;55.670;37.596;2023-02-18T01:11:06;99524.75;;;-10.15;81.48
51081;BME280;37130;55.670;37.596;2023-02-18T01:13:35;99519.69;;;-10.13;81.00
51081;BME280;37130;55.670;37.596;2023-02-18T01:16:05;99511.84;;;-10.18;82.17
51081;BME280;37130;55.670;37.596;2023-02-18T01:18:34;99403.13;;;-10.82;81.04
51081;BME280;37130;55.670;37.596;2023-02-18T01:21:04;99523.72;;;-10.20;81.25
51081;BME280;37130;55.670;37.596;2023-02-18T01:23:39;99488.56;;;-10.25;81.86
51081;BME280;37130;55.670;37.596;2023-02-18T01:26:09;99480.88;;;-10.25;81.55
51081;BME280;37130;55.670;37.596;2023-02-18T01:28:38;99479.94;;;-10.29;80.22
51081;BME280;37130;55.670;37.596;2023-02-18T01:31:10;99350.34;;;-11.04;81.03
51081;BME280;37130;55.670;37.596;2023-02-18T01:33:39;99467.00;;;-10.33;81.02
51081;BME280;37130;55.670;37.596;2023-02-18T01:36:07;99472.88;;;-10.36;80.50
51081;BME280;37130;55.670;37.596;2023-02-18T01:38:36;99465.00;;;-10.42;80.60
51081;BME280;37130;55.670;37.596;2023-02-18T01:41:04;99339.78;;;-11.14;81.53
51081;BME280;37130;55.670;37.596;2023-02-18T01:43:32;99458.47;;;-10.32;81.94
51081;BME280;37130;55.670;37.596;2023-02-18T01:46:11;99456.44;;;-10.16;81.37
51081;BME280;37130;55.670;37.596;2023-02-18T01:49:14;99453.50;;;-10.01;81.40
51081;BME280;37130;55.670;37.596;2023-02-18T01:51:38;99349.28;;;-10.59;80.62
51081;BME280;37130;55.670;37.596;2023-02-18T01:54:16;99439.25;;;-9.93;81.53
51081;BME280;37130;55.670;37.596;2023-02-18T01:56:50;99431.00;;;-9.84;81.16
51081;BME280;37130;55.670;37.596;2023-02-18T01:59:51;99312.66;;;-10.58;80.09
51081;BME280;37130;55.670;37.596;2023-02-18T02:02:19;99430.94;;;-9.85;80.60
51081;BME280;37130;55.670;37.596;2023-02-18T02:04:48;99424.47;;;-9.74;80.54
51081;BME280;37130;55.670;37.596;2023-02-18T02:07:17;99418.50;;;-9.73;80.37
51081;BME280;37130;55.670;37.596;2023-02-18T02:09:47;99422.78;;;-9.72;81.43
51081;BME280;37130;55.670;37.596;2023-02-18T02:20:46;99416.09;;;-9.68;80.92
51081;BME280;37130;55.670;37.596;2023-02-18T02:29:16;99399.56;;;-9.78;80.28
51081;BME280;37130;55.670;37.596;2023-02-18T02:31:59;99401.56;;;-9.97;80.46
51081;BME280;37130;55.670;37.596;2023-02-18T02:37:25;99406.22;;;-9.83;81.86
51081;BME280;37130;55.670;37.596;2023-02-18T02:48:26;99396.91;;;-9.81;82.29
51081;BME280;37130;55.670;37.596;2023-02-18T02:54:08;99368.66;;;-9.84;83.14
51081;BME280;37130;55.670;37.596;2023-02-18T02:56:36;99366.09;;;-9.83;83.56
51081;BME280;37130;55.670;37.596;2023-02-18T02:59:09;99367.03;;;-9.81;83.98
51081;BME280;37130;55.670;37.596;2023-02-18T03:12:32;99354.63;;;-9.67;83.51
51081;BME280;37130;55.670;37.596;2023-02-18T03:18:03;99344.13;;;-9.75;84.18
51081;BME280;37130;55.670;37.596;2023-02-18T03:21:00;99332.31;;;-9.71;84.64
51081;BME280;37130;55.670;37.596;2023-02-18T03:23:58;99329.03;;;-9.65;83.58
51081;BME280;37130;55.670;37.596;2023-02-18T03:26:29;99204.19;;;-10.34;84.52
51081;BME280;37130;55.670;37.596;2023-02-18T03:29:02;99219.97;;;-10.18;84.20
51081;BME280;37130;55.670;37.596;2023-02-18T03:31:32;99325.28;;;-9.46;85.02
51081;BME280;37130;55.670;37.596;2023-02-18T03:34:06;99308.28;;;-9.44;85.20
51081;BME280;37130;55.670;37.596;2023-02-18T03:36:36;99308.28;;;-9.44;84.67
51081;BME280;37130;55.670;37.596;2023-02-18T03:39:15;99301.56;;;-9.39;85.12
51081;BME280;37130;55.670;37.596;2023-02-18T03:41:43;99214.22;;;-10.10;85.05
51081;BME280;37130;55.670;37.596;2023-02-18T03:44:12;99305.66;;;-9.46;84.44
51081;BME280;37130;55.670;37.596;2023-02-18T03:46:41;99288.34;;;-9.55;85.13
51081;BME280;37130;55.670;37.596;2023-02-18T03:49:13;99256.34;;;-9.69;84.63
51081;BME280;37130;55.670;37.596;2023-02-18T03:51:42;99163.44;;;-10.25;84.73
51081;BME280;37130;55.670;37.596;2023-02-18T03:54:10;99290.19;;;-9.51;86.05
51081;BME280;37130;55.670;37.596;2023-02-18T03:56:40;99277.09;;;-9.60;84.65
51081;BME280;37130;55.670;37.596;2023-02-18T03:59:10;99263.84;;;-9.77;84.39
51081;BME280;37130;55.670;37.596;2023-02-18T04:01:38;99185.69;;;-10.23;85.24
51081;BME280;37130;55.670;37.596;2023-02-18T04:04:07;99268.53;;;-9.60;85.49
51081;BME280;37130;55.670;37.596;2023-02-18T04:06:34;99273.81;;;-9.56;85.20
51081;BME280;37130;55.670;37.596;2023-02-18T04:09:02;99254.97;;;-9.56;85.46
51081;BME280;37130;55.670;37.596;2023-02-18T04:11:37;99137.00;;;-10.24;85.67
51081;BME280;37130;55.670;37.596;2023-02-18T04:14:05;99168.28;;;-10.04;86.05
51081;BME280;37130;55.670;37.596;2023-02-18T04:16:33;99249.31;;;-9.44;86.50
51081;BME280;37130;55.670;37.596;2023-02-18T04:19:01;99238.22;;;-9.43;86.72
51081;BME280;37130;55.670;37.596;2023-02-18T04:21:28;99243.47;;;-9.40;86.39
51081;BME280;37130;55.670;37.596;2023-02-18T04:23:56;99239.25;;;-9.37;86.68
51081;BME280;37130;55.670;37.596;2023-02-18T04:26:23;99020.06;;;-10.60;87.60
51081;BME280;37130;55.670;37.596;2023-02-18T04:28:51;99218.78;;;-9.35;87.04
51081;BME280;37130;55.670;37.596;2023-02-18T04:31:18;99211.88;;;-9.38;86.61
51081;BME280;37130;55.670;37.596;2023-02-18T04:33:46;99219.50;;;-9.41;86.47
51081;BME280;37130;55.670;37.596;2023-02-18T04:36:14;99221.13;;;-9.44;87.32
51081;BME280;37130;55.670;37.596;2023-02-18T04:38:41;99213.44;;;-9.44;86.46
51081;BME280;37130;55.670;37.596;2023-02-18T04:41:09;99176.31;;;-9.59;87.93
51081;BME280;37130;55.670;37.596;2023-02-18T04:43:38;99206.06;;;-9.32;87.81
51081;BME280;37130;55.670;37.596;2023-02-18T04:46:06;99179.25;;;-9.43;87.05
51081;BME280;37130;55.670;37.596;2023-02-18T04:48:34;99210.53;;;-9.23;86.98
51081;BME280;37130;55.670;37.596;2023-02-18T04:51:02;99209.75;;;-9.21;87.03
51081;BME280;37130;55.670;37.596;2023-02-18T04:53:29;99209.75;;;-9.21;86.50
51081;BME280;37130;55.670;37.596;2023-02-18T04:55:57;99195.28;;;-9.17;87.20
51081;BME280;37130;55.670;37.596;2023-02-18T04:58:25;99206.50;;;-9.14;88.19
51081;BME280;37130;55.670;37.596;2023-02-18T05:00:52;99210.81;;;-9.13;87.49
51081;BME280;37130;55.670;37.596;2023-02-18T05:03:20;99198.81;;;-9.14;87.37
51081;BME280;37130;55.670;37.596;2023-02-18T05:05:48;99089.69;;;-9.74;87.19
51081;BME280;37130;55.670;37.596;2023-02-18T05:08:15;99187.78;;;-9.10;87.42
51081;BME280;37130;55.670;37.596;2023-02-18T05:10:43;99189.69;;;-9.02;88.45
51081;BME280;37130;55.670;37.596;2023-02-18T05:13:11;99183.81;;;-8.97;87.44
51081;BME280;37130;55.670;37.596;2023-02-18T05:15:38;99097.34;;;-9.40;87.32
51081;BME280;37130;55.670;37.596;2023-02-18T05:18:06;99182.91;;;-9.00;86.90
51081;BME280;37130;55.670;37.596;2023-02-18T05:20:34;99164.22;;;-8.93;87.50
51081;BME280;37130;55.670;37.596;2023-02-18T05:23:01;99172.91;;;-8.88;88.44
51081;BME280;37130;55.670;37.596;2023-02-18T05:25:31;99167.06;;;-8.81;88.35
51081;BME280;37130;55.670;37.596;2023-02-18T05:27:59;99174.75;;;-8.83;87.92
51081;BME280;37130;55.670;37.596;2023-02-18T05:30:26;99170.25;;;-8.93;88.51
51081;BME280;37130;55.670;37.596;2023-02-18T05:32:54;99155.66;;;-8.95;87.87
51081;BME280;37130;55.670;37.596;2023-02-18T05:35:21;99137.44;;;-9.06;88.48
51081;BME280;37130;55.670;37.596;2023-02-18T05:37:49;99026.56;;;-9.70;88.31
51081;BME280;37130;55.670;37.596;2023-02-18T05:40:16;99145.28;;;-9.00;89.35
51081;BME280;37130;55.670;37.596;2023-02-18T05:42:44;99066.47;;;-9.45;89.15
51081;BME280;37130;55.670;37.596;2023-02-18T05:45:11;99055.00;;;-9.59;89.48
51081;BME280;37130;55.670;37.596;2023-02-18T05:47:39;99130.13;;;-8.89;89.69
51081;BME280;37130;55.670;37.596;2023-02-18T05:50:07;99128.59;;;-8.81;89.56
51081;BME280;37130;55.670;37.596;2023-02-18T05:52:34;99123.41;;;-8.84;89.41
51081;BME280;37130;55.670;37.596;2023-02-18T05:55:02;99079.09;;;-9.15;89.92
51081;BME280;37130;55.670;37.596;2023-02-18T05:57:30;99103.44;;;-8.97;90.17
51081;BME280;37130;55.670;37.596;2023-02-18T05:59:57;99105.59;;;-8.76;90.79
51081;BME280;37130;55.670;37.596;2023-02-18T06:02:26;99104.16;;;-8.64;90.29
51081;BME280;37130;55.670;37.596;2023-02-18T06:04:53;99104.34;;;-8.54;90.32
51081;BME280;37130;55.670;37.596;2023-02-18T06:07:21;99099.94;;;-8.62;90.21
51081;BME280;37130;55.670;37.596;2023-02-18T06:09:48;99101.59;;;-8.64;90.64
51081;BME280;37130;55.670;37.596;2023-02-18T06:12:16;99102.28;;;-8.71;90.23
51081;BME280;37130;55.670;37.596;2023-02-18T06:14:43;98979.50;;;-9.37;91.34
51081;BME280;37130;55.670;37.596;2023-02-18T06:17:11;99088.66;;;-8.68;90.95
51081;BME280;37130;55.670;37.596;2023-02-18T06:19:39;99093.03;;;-8.64;91.32
51081;BME280;37130;55.670;37.596;2023-02-18T06:22:06;99084.44;;;-8.65;90.84
51081;BME280;37130;55.670;37.596;2023-02-18T06:24:34;99091.38;;;-8.61;91.57
51081;BME280;37130;55.670;37.596;2023-02-18T06:27:02;99082.56;;;-8.73;91.32
51081;BME280;37130;55.670;37.596;2023-02-18T06:29:30;99074.13;;;-8.68;91.55
51081;BME280;37130;55.670;37.596;2023-02-18T06:31:58;99077.03;;;-8.51;92.05
51081;BME280;37130;55.670;37.596;2023-02-18T06:34:26;99071.28;;;-8.36;92.09
51081;BME280;37130;55.670;37.596;2023-02-18T06:36:54;99061.75;;;-8.45;91.62
51081;BME280;37130;55.670;37.596;2023-02-18T06:39:22;99076.56;;;-8.28;92.52
51081;BME280;37130;55.670;37.596;2023-02-18T06:41:49;99067.34;;;-8.19;91.85
51081;BME280;37130;55.670;37.596;2023-02-18T06:44:17;99060.56;;;-8.15;91.34
51081;BME280;37130;55.670;37.596;2023-02-18T06:46:44;99054.75;;;-8.06;91.35
51081;BME280;37130;55.670;37.596;2023-02-18T06:49:12;99052.34;;;-7.96;91.47
51081;BME280;37130;55.670;37.596;2023-02-18T06:51:40;98929.59;;;-8.67;90.85
51081;BME280;37130;55.670;37.596;2023-02-18T06:54:07;99046.59;;;-7.81;90.88
51081;BME280;37130;55.670;37.596;2023-02-18T06:56:35;99025.22;;;-7.80;90.32
51081;BME280;37130;55.670;37.596;2023-02-18T06:59:03;99048.63;;;-7.60;90.55
51081;BME280;37130;55.670;37.596;2023-02-18T07:01:30;99027.28;;;-7.56;89.83
51081;BME280;37130;55.670;37.596;2023-02-18T07:03:58;99033.00;;;-7.17;90.83
51081;BME280;37130;55.670;37.596;2023-02-18T07:06:26;99025.69;;;-6.88;90.32
51081;BME280;37130;55.670;37.596;2023-02-18T07:08:53;98984.88;;;-7.24;88.66
51081;BME280;37130;55.670;37.596;2023-02-18T07:11:21;98978.41;;;-7.57;88.94
51081;BME280;37130;55.670;37.596;2023-02-18T07:13:49;98920.84;;;-7.68;88.73
51081;BME280;37130;55.670;37.596;2023-02-18T07:16:16;99010.78;;;-7.11;88.24
51081;BME280;37130;55.670;37.596;2023-02-18T07:18:45;98994.31;;;-7.23;88.08
51081;BME280;37130;55.670;37.596;2023-02-18T07:21:13;98990.66;;;-7.39;87.52
51081;BME280;37130;55.670;37.596;2023-02-18T07:23:41;98976.16;;;-7.34;88.02
51081;BME280;37130;55.670;37.596;2023-02-18T07:26:12;98980.78;;;-7.10;89.05
51081;BME280;37130;55.670;37.596;2023-02-18T07:28:40;98869.50;;;-7.62;87.79
51081;BME280;37130;55.670;37.596;2023-02-18T07:31:08;98989.53;;;-6.94;87.52
51081;BME280;37130;55.670;37.596;2023-02-18T07:33:36;98948.97;;;-7.17;86.36
51081;BME280;37130;55.670;37.596;2023-02-18T07:36:04;98963.63;;;-7.11;87.47
51081;BME280;37130;55.670;37.596;2023-02-18T07:38:32;98973.19;;;-7.01;87.31
51081;BME280;37130;55.670;37.596;2023-02-18T07:41:00;98952.50;;;-7.09;87.19
51081;BME280;37130;55.670;37.596;2023-02-18T07:43:27;98962.56;;;-6.54;87.65
51081;BME280;37130;55.670;37.596;2023-02-18T07:45:55;98961.09;;;-6.30;87.71
51081;BME280;37130;55.670;37.596;2023-02-18T07:48:23;98953.22;;;-6.43;86.30
51081;BME280;37130;55.670;37.596;2023-02-18T07:50:50;98937.03;;;-6.29;86.92
51081;BME280;37130;55.670;37.596;2023-02-18T07:53:18;98825.75;;;-6.89;86.72
51081;BME280;37130;55.670;37.596;2023-02-18T07:55:46;98940.56;;;-6.17;86.51
51081;BME280;37130;55.670;37.596;2023-02-18T07:58:23;98817.84;;;-7.09;85.37
51081;BME280;37130;55.670;37.596;2023-02-18T08:00:52;98937.81;;;-6.38;84.83
51081;BME280;37130;55.670;37.596;2023-02-18T08:03:28;98915.44;;;-6.47;84.87
51081;BME280;37130;55.670;37.596;2023-02-18T08:05:56;98952.22;;;-6.55;84.56
51081;BME280;37130;55.670;37.596;2023-02-18T08:08:26;98924.63;;;-6.70;85.01
51081;BME280;37130;55.670;37.596;2023-02-18T08:10:56;98931.44;;;-6.74;84.37
51081;BME280;37130;55.670;37.596;2023-02-18T08:13:27;98914.22;;;-6.79;84.00
51081;BME280;37130;55.670;37.596;2023-02-18T08:15:55;98911.69;;;-6.76;84.99
51081;BME280;37130;55.670;37.596;2023-02-18T08:18:24;98807.25;;;-7.37;83.62
51081;BME280;37130;55.670;37.596;2023-02-18T08:20:52;98897.03;;;-6.84;84.27
51081;BME280;37130;55.670;37.596;2023-02-18T08:23:21;98882.34;;;-6.92;83.76
51081;BME280;37130;55.670;37.596;2023-02-18T08:25:51;98867.56;;;-7.12;83.33
51081;BME280;37130;55.670;37.596;2023-02-18T08:28:21;98891.00;;;-6.86;83.25
51081;BME280;37130;55.670;37.596;2023-02-18T08:30:50;98891.84;;;-6.88;83.23
51081;BME280;37130;55.670;37.596;2023-02-18T08:33:19;98889.25;;;-6.88;83.86
51081;BME280;37130;55.670;37.596;2023-02-18T08:35:48;98872.31;;;-6.66;84.50
51081;BME280;37130;55.670;37.596;2023-02-18T08:38:16;98767.16;;;-7.18;83.57
51081;BME280;37130;55.670;37.596;2023-02-18T08:40:44;98888.75;;;-6.52;83.83
51081;BME280;37130;55.670;37.596;2023-02-18T08:43:13;98856.94;;;-6.55;83.06
51081;BME280;37130;55.670;37.596;2023-02-18T08:45:42;98772.38;;;-7.12;82.84
51081;BME280;37130;55.670;37.596;2023-02-18T08:48:12;98842.38;;;-6.55;83.47
51081;BME280;37130;55.670;37.596;2023-02-18T08:50:47;98807.13;;;-6.62;83.67
51081;BME280;37130;55.670;37.596;2023-02-18T08:53:15;98844.38;;;-6.20;83.86
51081;BME280;37130;55.670;37.596;2023-02-18T08:55:44;98856.41;;;-6.18;83.18
51081;BME280;37130;55.670;37.596;2023-02-18T08:58:11;98848.53;;;-6.37;82.48
51081;BME280;37130;55.670;37.596;2023-02-18T09:00:41;98843.38;;;-6.34;83.29
51081;BME280;37130;55.670;37.596;2023-02-18T09:03:13;98821.88;;;-6.41;82.87
51081;BME280;37130;55.670;37.596;2023-02-18T09:05:41;98850.44;;;-6.12;83.42
51081;BME280;37130;55.670;37.596;2023-02-18T09:08:09;98823.81;;;-6.08;81.94
51081;BME280;37130;55.670;37.596;2023-02-18T09:10:36;98733.41;;;-6.48;82.65
51081;BME280;37130;55.670;37.596;2023-02-18T09:13:05;98730.88;;;-6.37;81.71
51081;BME280;37130;55.670;37.596;2023-02-18T09:15:33;98810.16;;;-5.85;82.56
51081;BME280;37130;55.670;37.596;2023-02-18T09:18:01;98743.78;;;-6.38;81.57
51081;BME280;37130;55.670;37.596;2023-02-18T09:20:28;98797.25;;;-5.99;81.22
51081;BME280;37130;55.670;37.596;2023-02-18T09:22:56;98796.41;;;-5.93;81.66
51081;BME280;37130;55.670;37.596;2023-02-18T09:25:24;98627.66;;;-6.77;82.06
51081;BME280;37130;55.670;37.596;2023-02-18T09:27:52;98638.06;;;-6.57;81.40
51081;BME280;37130;55.670;37.596;2023-02-18T09:30:19;98664.94;;;-6.01;81.41
51081;BME280;37130;55.670;37.596;2023-02-18T09:32:47;98771.72;;;-5.18;81.62
51081;BME280;37130;55.670;37.596;2023-02-18T09:35:15;98768.31;;;-5.01;81.72
51081;BME280;37130;55.670;37.596;2023-02-18T09:37:43;98773.50;;;-4.92;80.00
51081;BME280;37130;55.670;37.596;2023-02-18T09:40:26;98761.44;;;-4.89;80.59
51081;BME280;37130;55.670;37.596;2023-02-18T09:42:57;98698.56;;;-5.38;79.86
51081;BME280;37130;55.670;37.596;2023-02-18T09:45:26;98741.59;;;-5.14;79.20
51081;BME280;37130;55.670;37.596;2023-02-18T09:47:54;98572.13;;;-5.89;79.94
51081;BME280;37130;55.670;37.596;2023-02-18T09:50:25;98742.50;;;-4.63;79.07
51081;BME280;37130;55.670;37.596;2023-02-18T09:52:53;98731.31;;;-4.70;77.76
51081;BME280;37130;55.670;37.596;2023-02-18T09:55:24;98727.84;;;-4.59;78.27
51081;BME280;37130;55.670;37.596;2023-02-18T09:57:59;98645.25;;;-5.45;77.43
51081;BME280;37130;55.670;37.596;2023-02-18T10:00:38;98733.88;;;-4.93;77.36
51081;BME280;37130;55.670;37.596;2023-02-18T10:03:24;98700.31;;;-4.85;77.59
51081;BME280;37130;55.670;37.596;2023-02-18T10:06:05;98689.09;;;-4.58;77.57
51081;BME280;37130;55.670;37.596;2023-02-18T10:08:37;98690.84;;;-4.66;76.98
51081;BME280;37130;55.670;37.596;2023-02-18T10:11:14;98686.53;;;-4.58;77.28
51081;BME280;37130;55.670;37.596;2023-02-18T10:13:44;98681.34;;;-4.58;76.32
51081;BME280;37130;55.670;37.596;2023-02-18T10:16:16;98669.28;;;-4.57;77.32
51081;BME280;37130;55.670;37.596;2023-02-18T10:18:49;98672.72;;;-4.52;76.38
51081;BME280;37130;55.670;37.596;2023-02-18T10:21:23;98664.97;;;-4.52;76.85
51081;BME280;37130;55.670;37.596;2023-02-18T10:26:50;98676.22;;;-5.01;75.89
51081;BME280;37130;55.670;37.596;2023-02-18T10:29:19;98665.91;;;-5.09;75.67
51081;BME280;37130;55.670;37.596;2023-02-18T10:32:03;98637.53;;;-5.13;74.94
51081;BME280;37130;55.670;37.596;2023-02-18T10:34:55;98656.44;;;-5.22;75.48
51081;BME280;37130;55.670;37.596;2023-02-18T10:46:10;98653.00;;;-5.21;75.29
51081;BME280;37130;55.670;37.596;2023-02-18T10:51:40;98647.00;;;-5.29;73.21
51081;BME280;37130;55.670;37.596;2023-02-18T10:54:13;98634.06;;;-5.40;73.38
51081;BME280;37130;55.670;37.596;2023-02-18T10:56:52;98624.59;;;-5.48;74.08
51081;BME280;37130;55.670;37.596;2023-02-18T10:59:31;98626.34;;;-5.31;74.11
51081;BME280;37130;55.670;37.596;2023-02-18T11:02:04;98618.56;;;-5.09;73.59
51081;BME280;37130;55.670;37.596;2023-02-18T11:04:43;98622.00;;;-4.86;73.52
51081;BME280;37130;55.670;37.596;2023-02-18T11:07:14;98623.69;;;-4.72;73.26
51081;BME280;37130;55.670;37.596;2023-02-18T11:09:52;98598.72;;;-4.72;72.78
51081;BME280;37130;55.670;37.596;2023-02-18T11:12:40;98573.78;;;-4.83;72.46
51081;BME280;37130;55.670;37.596;2023-02-18T11:17:41;98607.28;;;-4.50;72.37
51081;BME280;37130;55.670;37.596;2023-02-18T11:20:21;98605.56;;;-4.52;72.10
51081;BME280;37130;55.670;37.596;2023-02-18T11:22:50;98602.94;;;-4.43;72.36
51081;BME280;37130;55.670;37.596;2023-02-18T11:25:30;98592.66;;;-4.55;71.66
51081;BME280;37130;55.670;37.596;2023-02-18T11:28:03;98434.59;;;-5.51;71.57
51081;BME280;37130;55.670;37.596;2023-02-18T11:30:36;98506.75;;;-5.20;71.00
51081;BME280;37130;55.670;37.596;2023-02-18T11:33:35;98575.47;;;-4.79;71.90
51081;BME280;37130;55.670;37.596;2023-02-18T11:38:56;98571.25;;;-4.94;71.65
51081;BME280;37130;55.670;37.596;2023-02-18T11:44:01;98568.72;;;-5.31;72.59
51081;BME280;37130;55.670;37.596;2023-02-18T11:46:29;98449.28;;;-6.04;71.68
51081;BME280;37130;55.670;37.596;2023-02-18T11:49:19;98569.56;;;-5.35;71.99
51081;BME280;37130;55.670;37.596;2023-02-18T11:51:48;98372.00;;;-6.44;71.63
51081;BME280;37130;55.670;37.596;2023-02-18T11:54:26;98554.09;;;-5.35;72.23
51081;BME280;37130;55.670;37.596;2023-02-18T11:57:03;98532.59;;;-5.48;71.85
51081;BME280;37130;55.670;37.596;2023-02-18T11:59:34;98537.75;;;-5.56;71.75
51081;BME280;37130;55.670;37.596;2023-02-18T12:04:43;98531.75;;;-5.32;71.74
51081;BME280;37130;55.670;37.596;2023-02-18T12:07:25;98527.41;;;-5.25;71.93
51081;BME280;37130;55.670;37.596;2023-02-18T12:10:04;98522.25;;;-5.16;72.31
51081;BME280;37130;55.670;37.596;2023-02-18T12:12:55;98511.94;;;-5.28;71.64
51081;BME280;37130;55.670;37.596;2023-02-18T12:15:33;98528.28;;;-5.28;71.30
51081;BME280;37130;55.670;37.596;2023-02-18T12:18:22;98515.38;;;-5.43;72.45
51081;BME280;37130;55.670;37.596;2023-02-18T12:29:20;98515.41;;;-5.47;72.12
51081;BME280;37130;55.670;37.596;2023-02-18T12:37:42;98511.94;;;-5.40;71.79
51081;BME280;37130;55.670;37.596;2023-02-18T12:44:03;98493.03;;;-5.41;72.32
51081;BME280;37130;55.670;37.596;2023-02-18T12:46:38;98400.31;;;-5.98;72.36
51081;BME280;37130;55.670;37.596;2023-02-18T12:54:30;98493.91;;;-5.49;72.45
51081;BME280;37130;55.670;37.596;2023-02-18T12:59:51;98475.88;;;-5.49;72.19
51081;BME280;37130;55.670;37.596;2023-02-18T13:08:34;98481.06;;;-5.68;72.10
51081;BME280;37130;55.670;37.596;2023-02-18T13:11:18;98481.91;;;-5.81;72.89
51081;BME280;37130;55.670;37.596;2023-02-18T13:14:10;98464.72;;;-5.87;72.08
51081;BME280;37130;55.670;37.596;2023-02-18T13:16:42;98343.69;;;-6.47;73.21
51081;BME280;37130;55.670;37.596;2023-02-18T13:21:39;98441.56;;;-6.10;73.61
51081;BME280;37130;55.670;37.596;2023-02-18T13:24:10;98453.59;;;-6.09;72.99
51081;BME280;37130;55.670;37.596;2023-02-18T13:26:41;98464.75;;;-6.13;72.82
51081;BME280;37130;55.670;37.596;2023-02-18T13:34:54;98382.28;;;-6.67;73.99
51081;BME280;37130;55.670;37.596;2023-02-18T13:40:00;98410.66;;;-6.39;73.25
51081;BME280;37130;55.670;37.596;2023-02-18T13:47:42;98415.78;;;-6.33;73.36
51081;BME280;37130;55.670;37.596;2023-02-18T13:50:31;98376.28;;;-6.49;74.14
51081;BME280;37130;55.670;37.596;2023-02-18T13:55:52;98418.38;;;-6.25;74.08
51081;BME280;37130;55.670;37.596;2023-02-18T14:06:20;98410.63;;;-6.31;73.87
51081;BME280;37130;55.670;37.596;2023-02-18T14:08:48;98405.50;;;-6.28;75.26
51081;BME280;37130;55.670;37.596;2023-02-18T14:14:14;98401.19;;;-6.29;74.41
51081;BME280;37130;55.670;37.596;2023-02-18T14:19:41;98325.63;;;-6.79;74.68
51081;BME280;37130;55.670;37.596;2023-02-18T14:22:25;98384.03;;;-6.38;74.22
51081;BME280;37130;55.670;37.596;2023-02-18T14:27:52;98396.91;;;-6.30;75.07
51081;BME280;37130;55.670;37.596;2023-02-18T14:30:40;98372.88;;;-6.42;74.47
51081;BME280;37130;55.670;37.596;2023-02-18T14:33:14;98254.44;;;-7.12;74.92
51081;BME280;37130;55.670;37.596;2023-02-18T14:35:56;98367.69;;;-6.45;75.00
51081;BME280;37130;55.670;37.596;2023-02-18T14:38:38;98378.00;;;-6.37;74.64
51081;BME280;37130;55.670;37.596;2023-02-18T14:41:21;98321.38;;;-6.68;75.89
51081;BME280;37130;55.670;37.596;2023-02-18T14:49:38;98378.00;;;-6.48;74.94
51081;BME280;37130;55.670;37.596;2023-02-18T14:52:14;98269.00;;;-7.14;75.53
51081;BME280;37130;55.670;37.596;2023-02-18T14:54:46;98372.00;;;-6.42;75.50
51081;BME280;37130;55.670;37.596;2023-02-18T14:57:17;98287.88;;;-7.00;75.47
51081;BME280;37130;55.670;37.596;2023-02-18T14:59:56;98212.38;;;-7.48;75.19
51081;BME280;37130;55.670;37.596;2023-02-18T15:02:28;98359.97;;;-6.52;75.80
51081;BME280;37130;55.670;37.596;2023-02-18T15:05:25;98365.13;;;-6.58;75.27
51081;BME280;37130;55.670;37.596;2023-02-18T15:08:01;98372.84;;;-6.54;75.44
51081;BME280;37130;55.670;37.596;2023-02-18T15:10:51;98341.09;;;-6.59;75.15
51081;BME280;37130;55.670;37.596;2023-02-18T15:13:26;98217.53;;;-7.43;75.70
51081;BME280;37130;55.670;37.596;2023-02-18T15:16:04;98352.25;;;-6.62;75.43
51081;BME280;37130;55.670;37.596;2023-02-18T15:21:06;98338.50;;;-6.61;76.18
51081;BME280;37130;55.670;37.596;2023-02-18T15:23:37;98328.25;;;-6.57;75.97
51081;BME280;37130;55.670;37.596;2023-02-18T15:26:06;98316.19;;;-6.52;76.42
51081;BME280;37130;55.670;37.596;2023-02-18T15:28:50;98305.91;;;-6.62;75.71
51081;BME280;37130;55.670;37.596;2023-02-18T15:31:25;98319.63;;;-6.53;75.84
51081;BME280;37130;55.670;37.596;2023-02-18T15:33:53;98320.50;;;-6.53;76.64